createdAt,value
2018-10-11T00:00:54.325Z,100462.30
2018-10-11T00:03:23.656Z,100456.38
2018-10-11T00:05:52.428Z,100459.13
2018-10-11T00:08:21.249Z,100461.22
2018-10-11T00:10:50.035Z,100467.17
2018-10-11T00:13:18.877Z,100471.39
2018-10-11T00:15:47.992Z,100472.02
2018-10-11T00:18:16.807Z,100468.91
2018-10-11T00:20:45.714Z,100469.75
2018-10-11T00:23:17.298Z,100463.96
2018-10-11T00:25:46.110Z,100470.29
2018-10-11T00:28:14.994Z,100461.69
2018-10-11T00:30:43.881Z,100457.52
2018-10-11T00:33:12.768Z,100453.86
2018-10-11T00:35:41.578Z,100455.17
2018-10-11T00:38:11.126Z,100458.23
2018-10-11T00:40:40.063Z,100463.73
2018-10-11T00:43:08.894Z,100463.27
2018-10-11T00:45:38.057Z,100462.69
2018-10-11T00:48:06.973Z,100469.65
2018-10-11T00:50:35.857Z,100464.03
2018-10-11T00:53:04.658Z,100460.88
2018-10-11T00:55:33.507Z,100450.72
2018-10-11T00:58:02.244Z,100446.02
2018-10-11T01:00:31.219Z,100441.73
2018-10-11T01:03:00.018Z,100438.78
2018-10-11T01:05:28.886Z,100436.13
2018-10-11T01:07:57.673Z,100429.87
2018-10-11T01:10:26.413Z,100422.59
2018-10-11T01:12:55.225Z,100418.82
2018-10-11T01:15:24.167Z,100422.59
2018-10-11T01:17:53.023Z,100417.01
2018-10-11T01:20:21.863Z,100417.42
2018-10-11T01:22:50.724Z,100417.72
2018-10-11T01:25:19.699Z,100418.64
2018-10-11T01:27:48.585Z,100433.84
2018-10-11T01:30:17.348Z,100432.10
2018-10-11T01:32:46.557Z,100432.20
2018-10-11T01:35:15.409Z,100430.17
2018-10-11T01:37:44.359Z,100433.34
2018-10-11T01:40:13.280Z,100434.23
2018-10-11T01:42:42.176Z,100446.09
2018-10-11T01:45:12.111Z,100440.53
2018-10-11T01:47:41.001Z,100431.99
2018-10-11T01:50:09.951Z,100426.45
2018-10-11T01:55:18.203Z,100421.56
2018-10-11T01:57:47.395Z,100431.48
2018-10-11T02:00:16.272Z,100428.34
2018-10-11T02:02:45.186Z,100428.82
2018-10-11T02:05:14.007Z,100422.96
2018-10-11T02:07:42.874Z,100422.31
2018-10-11T02:10:11.762Z,100416.17
2018-10-11T02:12:40.634Z,100413.03
2018-10-11T02:15:09.932Z,100412.59
2018-10-11T02:17:38.675Z,100408.17
2018-10-11T02:20:08.070Z,100412.11
2018-10-11T02:22:36.931Z,100406.92
2018-10-11T02:25:05.793Z,100406.45
2018-10-11T02:27:34.617Z,100402.50
2018-10-11T02:30:03.443Z,100403.64
2018-10-11T02:32:32.251Z,100399.20
2018-10-11T02:35:01.089Z,100399.06
2018-10-11T02:37:29.840Z,100398.03
2018-10-11T02:39:58.753Z,100389.97
2018-10-11T02:42:28.188Z,100382.36
2018-10-11T02:44:57.059Z,100387.27
2018-10-11T02:47:26.050Z,100382.50
2018-10-11T02:49:54.959Z,100373.67
2018-10-11T02:52:24.021Z,100362.63
2018-10-11T02:54:52.983Z,100371.72
2018-10-11T02:57:33.003Z,100368.36
2018-10-11T03:00:03.266Z,100366.50
2018-10-11T03:02:33.291Z,100361.55
2018-10-11T03:05:02.233Z,100353.60
2018-10-11T03:07:31.153Z,100347.95
2018-10-11T03:10:00.715Z,100352.17
2018-10-11T03:12:29.702Z,100350.27
2018-10-11T03:14:58.985Z,100338.03
2018-10-11T03:17:27.823Z,100335.27
2018-10-11T03:19:56.703Z,100334.70
2018-10-11T03:22:25.552Z,100330.02
2018-10-11T03:24:54.402Z,100329.95
2018-10-11T03:27:23.226Z,100331.66
2018-10-11T03:29:52.824Z,100341.04
2018-10-11T03:32:32.361Z,100340.78
2018-10-11T03:35:01.200Z,100335.69
2018-10-11T03:37:30.855Z,100342.05
2018-10-11T03:39:59.699Z,100337.58
2018-10-11T03:42:28.465Z,100330.31
2018-10-11T03:44:57.289Z,100330.59
2018-10-11T03:47:26.164Z,100337.04
2018-10-11T03:49:54.978Z,100338.44
2018-10-11T03:52:23.814Z,100337.31
2018-10-11T03:54:52.645Z,100336.21
2018-10-11T03:57:21.779Z,100334.03
2018-10-11T03:59:50.522Z,100337.11
2018-10-11T04:02:19.332Z,100338.44
2018-10-11T04:04:48.105Z,100333.69
2018-10-11T04:07:16.952Z,100337.09
2018-10-11T04:09:45.726Z,100330.03
2018-10-11T04:12:14.574Z,100336.30
2018-10-11T04:14:43.709Z,100338.05
2018-10-11T04:17:12.663Z,100330.08
2018-10-11T04:19:41.495Z,100340.18
2018-10-11T04:22:10.991Z,100342.70
2018-10-11T04:24:39.763Z,100352.73
2018-10-11T04:27:08.625Z,100352.66
2018-10-11T04:29:37.424Z,100359.47
2018-10-11T04:32:06.322Z,100346.05
2018-10-11T04:34:35.162Z,100345.06
2018-10-11T04:37:03.988Z,100351.80
2018-10-11T04:39:32.879Z,100348.44
2018-10-11T04:42:01.721Z,100343.84
2018-10-11T04:44:34.856Z,100344.23
2018-10-11T04:47:04.759Z,100349.63
2018-10-11T04:49:34.072Z,100352.20
2018-10-11T04:52:02.822Z,100358.99
2018-10-11T04:54:31.708Z,100353.13
2018-10-11T04:57:00.547Z,100350.56
2018-10-11T04:59:29.379Z,100353.15
2018-10-11T05:01:58.228Z,100350.57
2018-10-11T05:04:27.068Z,100350.22
2018-10-11T05:06:56.209Z,100355.41
2018-10-11T05:09:25.020Z,100351.69
2018-10-11T05:11:53.962Z,100352.55
2018-10-11T05:14:22.866Z,100362.81
2018-10-11T05:16:51.758Z,100365.00
2018-10-11T05:19:20.605Z,100364.67
2018-10-11T05:21:49.450Z,100367.45
2018-10-11T05:24:18.293Z,100362.41
2018-10-11T05:26:47.996Z,100363.00
2018-10-11T05:29:17.230Z,100359.28
2018-10-11T05:31:46.422Z,100351.12
2018-10-11T05:34:15.535Z,100354.83
2018-10-11T05:36:44.404Z,100361.95
2018-10-11T05:39:13.156Z,100359.66
2018-10-11T05:41:42.316Z,100358.68
2018-10-11T05:44:11.391Z,100358.94
2018-10-11T05:46:40.301Z,100352.80
2018-10-11T05:49:09.263Z,100351.23
2018-10-11T05:51:38.073Z,100348.55
2018-10-11T05:54:07.726Z,100348.28
2018-10-11T05:56:38.362Z,100353.31
2018-10-11T05:59:08.074Z,100359.08
2018-10-11T06:01:37.069Z,100359.33
2018-10-11T06:04:07.132Z,100362.89
2018-10-11T06:06:35.938Z,100368.02
2018-10-11T06:09:05.555Z,100366.38
2018-10-11T06:11:34.513Z,100372.75
2018-10-11T06:14:03.524Z,100373.22
2018-10-11T06:16:32.736Z,100370.66
2018-10-11T06:19:01.669Z,100367.66
2018-10-11T06:21:30.768Z,100374.50
2018-10-11T06:23:59.634Z,100357.83
2018-10-11T06:26:28.652Z,100356.97
2018-10-11T06:28:57.833Z,100344.45
2018-10-11T06:31:27.145Z,100336.34
2018-10-11T06:33:56.082Z,100328.83
2018-10-11T06:36:25.340Z,100329.09
2018-10-11T06:38:54.702Z,100333.47
2018-10-11T06:41:23.732Z,100335.79
2018-10-11T06:43:52.636Z,100337.03
2018-10-11T06:46:21.539Z,100349.86
2018-10-11T06:48:50.512Z,100360.46
2018-10-11T06:51:19.413Z,100364.45
2018-10-11T06:53:48.355Z,100371.29
2018-10-11T06:56:17.256Z,100383.67
2018-10-11T06:58:46.193Z,100382.82
2018-10-11T07:01:15.230Z,100380.86
2018-10-11T07:03:44.129Z,100375.45
2018-10-11T07:06:12.983Z,100372.57
2018-10-11T07:08:41.852Z,100367.30
2018-10-11T07:11:10.844Z,100363.20
2018-10-11T07:13:40.369Z,100363.53
2018-10-11T07:16:09.326Z,100367.41
2018-10-11T07:18:42.345Z,100365.42
2018-10-11T07:21:11.375Z,100374.56
2018-10-11T07:23:40.214Z,100363.10
2018-10-11T07:26:08.998Z,100376.09
2018-10-11T07:28:38.005Z,100384.54
2018-10-11T07:31:06.794Z,100388.80
2018-10-11T07:33:35.653Z,100383.28
2018-10-11T07:36:04.562Z,100379.02
2018-10-11T07:38:33.563Z,100372.32
2018-10-11T07:41:02.445Z,100383.30
2018-10-11T07:43:31.320Z,100370.50
2018-10-11T07:46:00.195Z,100383.43
2018-10-11T07:48:29.176Z,100385.85
2018-10-11T07:50:57.961Z,100372.31
2018-10-11T07:53:26.906Z,100369.70
2018-10-11T07:55:55.746Z,100373.66
2018-10-11T07:58:24.560Z,100377.00
2018-10-11T08:00:53.456Z,100378.69
2018-10-11T08:03:22.275Z,100377.83
2018-10-11T08:05:51.229Z,100374.50
2018-10-11T08:08:20.123Z,100372.92
2018-10-11T08:10:49.183Z,100371.39
2018-10-11T08:13:18.142Z,100366.37
2018-10-11T08:15:47.586Z,100365.74
2018-10-11T08:18:16.627Z,100369.97
2018-10-11T08:20:45.714Z,100370.20
2018-10-11T08:23:16.772Z,100385.11
2018-10-11T08:25:47.058Z,100382.63
2018-10-11T08:28:18.588Z,100372.06
2018-10-11T08:30:48.078Z,100381.94
2018-10-11T08:33:17.185Z,100375.49
2018-10-11T08:35:46.240Z,100373.17
2018-10-11T08:38:15.481Z,100373.08
2018-10-11T08:40:44.731Z,100370.62
2018-10-11T08:43:13.808Z,100371.79
2018-10-11T08:45:44.726Z,100374.81
2018-10-11T08:48:13.958Z,100381.09
2018-10-11T08:50:43.435Z,100382.55
2018-10-11T08:53:13.782Z,100375.30
2018-10-11T08:55:44.462Z,100375.70
2018-10-11T08:58:13.779Z,100371.84
2018-10-11T09:00:43.172Z,100372.73
2018-10-11T09:03:17.572Z,100371.65
2018-10-11T09:05:47.411Z,100362.50
2018-10-11T09:08:17.634Z,100359.44
2018-10-11T09:10:47.503Z,100362.95
2018-10-11T09:13:16.412Z,100360.73
2018-10-11T09:15:45.347Z,100357.14
2018-10-11T09:18:14.233Z,100366.22
2018-10-11T09:20:43.065Z,100363.84
2018-10-11T09:23:12.108Z,100353.14
2018-10-11T09:25:41.217Z,100357.72
2018-10-11T09:28:10.021Z,100357.31
2018-10-11T09:30:38.885Z,100358.99
2018-10-11T09:33:07.804Z,100357.12
2018-10-11T09:35:37.013Z,100360.13
2018-10-11T09:38:06.278Z,100356.53
2018-10-11T09:40:35.941Z,100358.93
2018-10-11T09:43:04.936Z,100354.14
2018-10-11T09:45:34.326Z,100353.05
2018-10-11T09:48:03.798Z,100354.80
2018-10-11T09:50:34.370Z,100347.80
2018-10-11T09:53:04.612Z,100358.80
2018-10-11T09:55:34.482Z,100364.47
2018-10-11T10:03:45.473Z,100358.88
2018-10-11T10:06:14.733Z,100354.48
2018-10-11T10:08:44.162Z,100362.83
2018-10-11T10:11:13.201Z,100358.72
2018-10-11T10:13:42.343Z,100349.55
2018-10-11T10:16:11.549Z,100348.41
2018-10-11T10:18:40.774Z,100354.30
2018-10-11T10:21:10.788Z,100348.51
2018-10-11T10:23:39.990Z,100349.80
2018-10-11T10:26:09.279Z,100361.92
2018-10-11T10:28:38.097Z,100357.54
2018-10-11T10:31:06.992Z,100347.86
2018-10-11T10:33:36.284Z,100351.94
2018-10-11T10:36:05.186Z,100343.88
2018-10-11T10:38:34.152Z,100340.73
2018-10-11T10:41:03.082Z,100345.90
2018-10-11T10:43:32.307Z,100340.66
2018-10-11T10:46:01.302Z,100339.60
2018-10-11T10:48:30.724Z,100338.27
2018-10-11T10:51:10.190Z,100335.31
2018-10-11T10:53:38.993Z,100329.19
2018-10-11T10:56:07.947Z,100325.91
2018-10-11T10:58:36.853Z,100329.77
2018-10-11T11:01:05.898Z,100319.86
2018-10-11T11:03:34.849Z,100320.80
2018-10-11T11:06:03.766Z,100328.28
2018-10-11T11:08:32.609Z,100328.75
2018-10-11T11:11:01.490Z,100333.41
2018-10-11T11:13:30.968Z,100331.28
2018-10-11T11:16:00.291Z,100327.53
2018-10-11T11:18:29.463Z,100327.39
2018-10-11T11:20:58.462Z,100321.78
2018-10-11T11:23:28.029Z,100320.45
2018-10-11T11:25:56.800Z,100320.05
2018-10-11T11:28:25.727Z,100307.36
2018-10-11T11:30:54.623Z,100307.88
2018-10-11T11:33:23.477Z,100307.73
2018-10-11T11:35:52.392Z,100306.42
2018-10-11T11:38:21.208Z,100299.93
2018-10-11T11:40:50.072Z,100304.44
2018-10-11T11:43:19.344Z,100299.09
2018-10-11T11:45:48.287Z,100306.55
2018-10-11T11:48:17.184Z,100306.55
2018-10-11T11:50:46.107Z,100305.37
2018-10-11T11:53:15.547Z,100304.19
2018-10-11T11:55:44.438Z,100301.02
2018-10-11T11:58:13.511Z,100304.89
2018-10-11T12:00:42.403Z,100294.78
2018-10-11T12:03:11.310Z,100296.50
2018-10-11T12:05:40.080Z,100296.19
2018-10-11T12:08:09.829Z,100290.06
2018-10-11T12:10:38.758Z,100298.67
2018-10-11T12:13:10.609Z,100292.27
2018-10-11T12:15:40.728Z,100292.38
2018-10-11T12:18:10.070Z,100295.18
2018-10-11T12:20:40.135Z,100290.66
2018-10-11T12:23:10.020Z,100280.47
2018-10-11T12:25:38.992Z,100282.94
2018-10-11T12:28:08.168Z,100276.09
2018-10-11T12:30:37.021Z,100279.75
2018-10-11T12:33:08.011Z,100274.55
2018-10-11T12:35:36.853Z,100274.66
2018-10-11T12:38:05.658Z,100267.98
2018-10-11T12:40:35.055Z,100276.29
2018-10-11T12:43:03.977Z,100271.92
2018-10-11T12:45:33.092Z,100266.23
2018-10-11T12:48:02.078Z,100256.41
2018-10-11T12:50:31.086Z,100260.62
2018-10-11T12:52:59.991Z,100253.55
2018-10-11T12:55:28.894Z,100256.23
2018-10-11T12:57:57.675Z,100245.66
2018-10-11T13:00:27.186Z,100247.16
2018-10-11T13:02:56.121Z,100240.72
2018-10-11T13:05:24.948Z,100244.28
2018-10-11T13:07:53.888Z,100238.18
2018-10-11T13:10:22.820Z,100240.63
2018-10-11T13:12:51.661Z,100239.84
2018-10-11T13:15:20.611Z,100232.96
2018-10-11T13:17:49.541Z,100236.01
2018-10-11T13:20:18.399Z,100229.27
2018-10-11T13:22:50.398Z,100230.90
2018-10-11T13:25:19.337Z,100237.04
2018-10-11T13:27:48.238Z,100235.40
2018-10-11T13:30:17.350Z,100233.16
2018-10-11T13:32:47.116Z,100235.88
2018-10-11T13:35:16.065Z,100236.91
2018-10-11T13:37:44.833Z,100236.91
2018-10-11T13:40:13.786Z,100237.31
2018-10-11T13:42:42.705Z,100236.92
2018-10-11T13:45:11.651Z,100232.22
2018-10-11T13:47:44.857Z,100231.59
2018-10-11T13:50:09.309Z,100225.28
2018-10-11T13:52:38.266Z,100225.45
2018-10-11T13:55:12.147Z,100224.52
2018-10-11T13:57:36.055Z,100225.66
2018-10-11T14:00:05.234Z,100223.22
2018-10-11T14:02:34.164Z,100227.67
2018-10-11T14:05:03.301Z,100230.13
2018-10-11T14:07:32.328Z,100227.19
2018-10-11T14:10:01.174Z,100218.28
2018-10-11T14:12:30.156Z,100231.72
2018-10-11T14:14:59.409Z,100231.13
2018-10-11T14:17:28.257Z,100221.56
2018-10-11T14:19:57.203Z,100220.63
2018-10-11T14:22:30.233Z,100222.59
2018-10-11T14:24:59.139Z,100224.50
2018-10-11T14:27:28.018Z,100225.27
2018-10-11T14:29:56.912Z,100229.66
2018-10-11T14:32:25.675Z,100217.92
2018-10-11T14:34:54.543Z,100220.63
2018-10-11T14:37:23.799Z,100226.34
2018-10-11T14:39:52.671Z,100220.13
2018-10-11T14:42:21.521Z,100223.16
2018-10-11T14:44:50.352Z,100223.02
2018-10-11T14:47:19.265Z,100223.95
2018-10-11T14:49:48.264Z,100227.00
2018-10-11T14:52:17.565Z,100210.64
2018-10-11T14:54:46.518Z,100213.33
2018-10-11T14:57:15.401Z,100215.01
2018-10-11T14:59:45.998Z,100216.86
2018-10-11T15:02:15.011Z,100218.29
2018-10-11T15:04:44.048Z,100220.33
2018-10-11T15:07:13.229Z,100219.45
2018-10-11T15:09:42.177Z,100219.39
2018-10-11T15:12:11.419Z,100227.35
2018-10-11T15:14:40.209Z,100231.89
2018-10-11T15:17:09.095Z,100227.71
2018-10-11T15:19:37.940Z,100223.50
2018-10-11T15:22:06.958Z,100227.00
2018-10-11T15:24:35.833Z,100225.45
2018-10-11T15:27:05.019Z,100226.44
2018-10-11T15:29:34.005Z,100231.16
2018-10-11T15:32:02.837Z,100225.81
2018-10-11T15:34:31.759Z,100232.68
2018-10-11T15:37:00.713Z,100237.83
2018-10-11T15:39:29.492Z,100236.06
2018-10-11T15:41:58.287Z,100246.91
2018-10-11T15:44:27.185Z,100245.13
2018-10-11T15:46:56.098Z,100241.48
2018-10-11T15:49:24.964Z,100243.77
2018-10-11T15:51:54.057Z,100240.83
2018-10-11T15:54:22.921Z,100234.38
2018-10-11T15:56:51.712Z,100229.60
2018-10-11T15:59:20.766Z,100223.49
2018-10-11T16:01:49.644Z,100228.95
2018-10-11T16:04:18.488Z,100226.30
2018-10-11T16:06:47.358Z,100227.73
2018-10-11T16:09:16.164Z,100228.14
2018-10-11T16:11:45.104Z,100234.95
2018-10-11T16:14:13.889Z,100243.11
2018-10-11T16:16:42.868Z,100247.07
2018-10-11T16:19:11.726Z,100249.40
2018-10-11T16:21:40.748Z,100252.97
2018-10-11T16:24:09.630Z,100255.36
2018-10-11T16:26:38.568Z,100264.02
2018-10-11T16:29:07.406Z,100263.36
2018-10-11T16:31:36.235Z,100269.78
2018-10-11T16:34:05.396Z,100277.33
2018-10-11T16:36:34.358Z,100274.80
2018-10-11T16:39:03.343Z,100283.98
2018-10-11T16:41:32.077Z,100281.51
2018-10-11T16:44:00.941Z,100283.40
2018-10-11T16:46:29.717Z,100288.52
2018-10-11T16:48:58.594Z,100283.06
2018-10-11T16:51:27.382Z,100279.30
2018-10-11T16:53:56.848Z,100287.78
2018-10-11T16:56:27.305Z,100290.84
2018-10-11T16:58:56.169Z,100289.52
2018-10-11T17:01:25.029Z,100295.10
2018-10-11T17:03:53.852Z,100291.37
2018-10-11T17:06:22.735Z,100295.64
2018-10-11T17:08:51.528Z,100306.94
2018-10-11T17:11:20.461Z,100303.14
2018-10-11T17:13:49.587Z,100306.74
2018-10-11T17:16:20.422Z,100307.45
2018-10-11T17:18:50.340Z,100309.53
2018-10-11T17:21:19.163Z,100312.98
2018-10-11T17:23:47.996Z,100310.73
2018-10-11T17:26:16.881Z,100315.27
2018-10-11T17:28:45.934Z,100325.81
2018-10-11T17:31:14.944Z,100326.13
2018-10-11T17:33:43.795Z,100327.13
2018-10-11T17:36:12.692Z,100326.72
2018-10-11T17:38:41.677Z,100328.72
2018-10-11T17:41:10.570Z,100325.36
2018-10-11T17:43:39.675Z,100332.19
2018-10-11T17:46:08.690Z,100332.88
2018-10-11T17:48:37.825Z,100331.70
2018-10-11T17:51:06.816Z,100330.22
2018-10-11T17:53:36.046Z,100331.70
2018-10-11T17:56:05.300Z,100326.50
2018-10-11T17:58:35.272Z,100329.30
2018-10-11T18:01:04.396Z,100332.22
2018-10-11T18:03:33.356Z,100333.50
2018-10-11T18:06:02.303Z,100334.45
2018-10-11T18:08:31.214Z,100337.05
2018-10-11T18:11:00.187Z,100340.69
2018-10-11T18:13:30.379Z,100345.38
2018-10-11T18:16:00.166Z,100350.04
2018-10-11T18:18:29.862Z,100337.95
2018-10-11T18:20:58.891Z,100345.59
2018-10-11T18:23:28.611Z,100340.91
2018-10-11T18:25:57.560Z,100341.52
2018-10-11T18:28:26.417Z,100338.06
2018-10-11T18:30:57.093Z,100346.14
2018-10-11T18:33:26.794Z,100340.22
2018-10-11T18:35:56.259Z,100345.78
2018-10-11T18:38:25.150Z,100349.38
2018-10-11T18:40:54.137Z,100357.28
2018-10-11T18:43:40.640Z,100361.70
2018-10-11T18:46:10.746Z,100366.16
2018-10-11T18:48:39.787Z,100369.45
2018-10-11T18:51:09.964Z,100366.80
2018-10-11T18:53:39.018Z,100371.09
2018-10-11T18:56:07.942Z,100375.95
2018-10-11T18:58:36.879Z,100373.33
2018-10-11T19:01:05.894Z,100371.58
2018-10-11T19:03:34.953Z,100372.64
2018-10-11T19:06:03.863Z,100373.88
2018-10-11T19:08:32.718Z,100374.82
2018-10-11T19:11:01.611Z,100374.12
2018-10-11T19:13:30.414Z,100376.20
2018-10-11T19:16:00.062Z,100376.23
2018-10-11T19:18:29.514Z,100377.54
2018-10-11T19:20:58.457Z,100379.55
2018-10-11T19:23:27.342Z,100376.81
2018-10-11T19:25:56.199Z,100374.71
2018-10-11T19:28:25.226Z,100372.34
2018-10-11T19:30:54.383Z,100378.59
2018-10-11T19:33:27.185Z,100379.59
2018-10-11T19:35:56.131Z,100383.50
2018-10-11T19:38:25.143Z,100380.98
2018-10-11T19:40:54.762Z,100380.62
2018-10-11T19:43:25.011Z,100380.14
2018-10-11T19:46:01.010Z,100379.44
2018-10-11T19:51:20.867Z,100383.92
2018-10-11T19:53:50.265Z,100387.27
2018-10-11T19:56:21.628Z,100398.20
2018-10-11T19:58:51.224Z,100393.50
2018-10-11T20:01:20.918Z,100394.13
2018-10-11T20:03:52.773Z,100396.70
2018-10-11T20:06:22.977Z,100394.95
2018-10-11T20:08:52.914Z,100397.41
2018-10-11T20:11:22.481Z,100392.87
2018-10-11T20:13:53.973Z,100391.89
2018-10-11T20:16:25.227Z,100388.94
2018-10-11T20:18:54.631Z,100398.73
2018-10-11T20:21:24.012Z,100402.52
2018-10-11T20:23:52.879Z,100404.88
2018-10-11T20:26:22.794Z,100404.08
2018-10-11T20:28:52.699Z,100412.40
2018-10-11T20:31:21.675Z,100407.15
2018-10-11T20:33:51.068Z,100414.28
2018-10-11T20:36:22.155Z,100414.42
2018-10-11T20:38:51.025Z,100415.01
2018-10-11T20:41:19.960Z,100422.94
2018-10-11T20:43:49.140Z,100427.00
2018-10-11T20:46:18.109Z,100430.15
2018-10-11T20:48:50.368Z,100438.61
2018-10-11T20:51:19.387Z,100438.73
2018-10-11T20:53:48.642Z,100440.91
2018-10-11T20:56:18.296Z,100437.88
2018-10-11T20:58:48.100Z,100447.50
2018-10-11T21:01:17.856Z,100444.19
2018-10-11T21:03:47.722Z,100447.59
2018-10-11T21:06:20.709Z,100455.75
2018-10-11T21:08:49.799Z,100451.67
2018-10-11T21:11:23.109Z,100448.58
2018-10-11T21:13:52.030Z,100449.61
2018-10-11T21:16:21.241Z,100450.02
2018-10-11T21:18:50.854Z,100451.39
2018-10-11T21:21:20.376Z,100451.09
2018-10-11T21:23:50.557Z,100458.20
2018-10-11T21:26:21.990Z,100456.56
2018-10-11T21:28:51.049Z,100461.03
2018-10-11T21:31:29.527Z,100457.66
2018-10-11T21:33:58.738Z,100455.27
2018-10-11T21:36:27.803Z,100456.77
2018-10-11T21:38:56.696Z,100455.70
2018-10-11T21:41:25.528Z,100462.23
2018-10-11T21:43:54.350Z,100457.09
2018-10-11T21:46:23.839Z,100458.23
2018-10-11T21:48:52.641Z,100459.97
2018-10-11T21:51:21.550Z,100452.62
2018-10-11T21:53:51.182Z,100443.70
2018-10-11T21:56:20.325Z,100446.17
2018-10-11T21:58:49.210Z,100453.30
2018-10-11T22:01:19.524Z,100451.30
2018-10-11T22:03:48.502Z,100447.00
2018-10-11T22:06:17.693Z,100448.55
2018-10-11T22:08:46.611Z,100448.70
2018-10-11T22:11:15.430Z,100456.80
2018-10-11T22:13:44.376Z,100456.70
2018-10-11T22:16:13.427Z,100457.19
2018-10-11T22:18:42.630Z,100459.62
2018-10-11T22:21:12.418Z,100461.55
2018-10-11T22:23:43.011Z,100469.12
2018-10-11T22:26:12.564Z,100467.70
2018-10-11T22:28:41.869Z,100470.36
2018-10-11T22:31:12.516Z,100464.28
2018-10-11T22:33:41.977Z,100466.30
2018-10-11T22:36:11.798Z,100461.75
2018-10-11T22:38:41.169Z,100464.41
2018-10-11T22:41:10.955Z,100470.95
2018-10-11T22:43:39.796Z,100466.86
2018-10-11T22:46:08.663Z,100468.45
2018-10-11T22:48:37.547Z,100463.03
2018-10-11T22:51:06.571Z,100467.59
2018-10-11T22:53:35.480Z,100460.63
2018-10-11T22:56:04.392Z,100461.70
2018-10-11T22:58:33.390Z,100454.96
2018-10-11T23:01:02.209Z,100462.53
2018-10-11T23:03:31.090Z,100461.59
2018-10-11T23:05:59.885Z,100463.17
2018-10-11T23:08:29.092Z,100461.97
2018-10-11T23:10:57.879Z,100471.36
2018-10-11T23:13:26.839Z,100474.13
2018-10-11T23:15:55.972Z,100472.58
2018-10-11T23:18:24.883Z,100472.06
2018-10-11T23:20:53.751Z,100473.63
2018-10-11T23:23:22.663Z,100475.33
2018-10-11T23:25:51.436Z,100479.66
2018-10-11T23:28:20.291Z,100472.31
2018-10-11T23:30:49.224Z,100474.60
2018-10-11T23:33:24.804Z,100469.30
2018-10-11T23:35:53.644Z,100470.13
2018-10-11T23:38:22.389Z,100476.63
2018-10-11T23:40:51.329Z,100475.53
2018-10-11T23:43:20.116Z,100481.20
2018-10-11T23:45:48.940Z,100484.30
2018-10-11T23:48:17.782Z,100492.83
2018-10-11T23:50:46.670Z,100496.79
2018-10-11T23:53:15.520Z,100495.61
2018-10-11T23:55:45.239Z,100498.27
2018-10-11T23:58:13.972Z,100501.98
